Time;durP1;ratioP1;P1;durP2;ratioP2;P2;SDS_P1;SDS_P2;PMS_P1;PMS_P2;Temp;Humidity;BMP_temperature;BMP_pressure;BME280_temperature;BME280_humidity;BME280_pressure;Samples;Min_cycle;Max_cycle;Signal;HPM_P1;HPM_P2
2022/09/30 00:02:18;;;;;;;0.43;0.43;;;;;;;19.65;90.13;98939.88;5130770;27;20199;-75
2022/09/30 00:04:45;;;;;;;0.50;0.50;;;;;;;19.61;90.02;98945.44;5130908;27;20188;-76
2022/09/30 00:07:12;;;;;;;0.50;0.50;;;;;;;19.61;90.21;98963.63;5137191;27;20261;-75
2022/09/30 00:09:39;;;;;;;0.43;0.43;;;;;;;19.61;90.07;98958.44;5130845;27;20677;-76
2022/09/30 00:12:06;;;;;;;0.40;0.40;;;;;;;19.57;90.36;98957.84;5132774;27;20754;-76
2022/09/30 00:14:34;;;;;;;0.43;0.43;;;;;;;19.54;90.43;98957.22;5129458;27;20204;-75
2022/09/30 00:17:01;;;;;;;0.60;0.60;;;;;;;19.53;90.86;98972.00;5130297;27;20690;-75
2022/09/30 00:19:28;;;;;;;0.40;0.40;;;;;;;19.49;90.94;98978.34;5130316;27;20220;-76
2022/09/30 00:21:56;;;;;;;0.43;0.43;;;;;;;19.47;90.69;98982.00;5135848;27;20227;-75
2022/09/30 00:24:23;;;;;;;0.40;0.40;;;;;;;19.36;90.86;98964.56;5130357;27;20291;-76
2022/09/30 00:26:50;;;;;;;0.40;0.40;;;;;;;19.36;91.73;98970.59;5130897;27;20198;-76
2022/09/30 00:29:17;;;;;;;0.40;0.40;;;;;;;19.29;91.74;98984.13;5130395;27;20232;-76
2022/09/30 00:31:45;;;;;;;0.50;0.50;;;;;;;19.27;91.90;98991.22;5130500;27;20698;-75
2022/09/30 00:34:12;;;;;;;0.40;0.40;;;;;;;19.23;92.22;98993.22;5131735;27;20588;-76
2022/09/30 00:36:43;;;;;;;0.40;0.40;;;;;;;19.22;92.30;98988.97;5131221;27;20201;-75
2022/09/30 00:39:13;;;;;;;0.40;0.40;;;;;;;19.20;92.49;98997.78;5130555;27;20664;-76
2022/09/30 00:41:40;;;;;;;0.40;0.40;;;;;;;19.19;92.43;99001.34;5130042;27;20293;-75
2022/09/30 00:44:44;;;;;;;0.50;0.50;;;;;;;19.10;93.43;99005.41;5130238;27;20696;-75
2022/09/30 00:47:31;;;;;;;0.70;0.70;;;;;;;18.99;93.94;99002.75;5126383;27;20186;-76
2022/09/30 00:50:02;;;;;;;0.60;0.60;;;;;;;18.68;93.79;98959.09;5130079;27;20190;-75
2022/09/30 00:52:30;;;;;;;0.60;0.60;;;;;;;18.93;93.96;99012.75;5128629;27;20201;-75
2022/09/30 00:55:01;;;;;;;0.50;0.50;;;;;;;18.82;94.60;99014.34;5127722;27;20626;-75
2022/09/30 00:57:29;;;;;;;0.50;0.50;;;;;;;18.78;95.06;99015.47;5136292;27;20190;-75
2022/09/30 00:59:57;;;;;;;0.50;0.50;;;;;;;18.81;94.79;99014.44;5134589;27;20186;-75
2022/09/30 01:02:25;;;;;;;0.40;0.40;;;;;;;18.83;94.78;99009.97;5130683;27;20209;-75
2022/09/30 01:04:53;;;;;;;0.50;0.50;;;;;;;18.84;94.63;99015.03;5130390;27;20194;-75
2022/09/30 01:07:22;;;;;;;0.40;0.40;;;;;;;18.83;94.15;99013.41;5129999;27;20230;-75
2022/09/30 01:09:50;;;;;;;0.47;0.47;;;;;;;18.78;93.96;99010.28;5134893;27;20707;-75
2022/09/30 01:12:20;;;;;;;0.50;0.50;;;;;;;18.83;93.89;99013.41;5129488;27;20211;-75
2022/09/30 01:14:52;;;;;;;0.50;0.50;;;;;;;18.81;94.10;99019.63;5129659;27;20191;-75
2022/09/30 01:17:26;;;;;;;0.50;0.50;;;;;;;18.78;94.15;99019.84;5129666;27;20283;-76
2022/09/30 01:20:26;;;;;;;0.47;0.47;;;;;;;18.76;94.10;99022.56;5130087;27;20186;-75
2022/09/30 01:23:12;;;;;;;0.40;0.40;;;;;;;18.75;93.96;99020.88;5132677;27;20206;-75
2022/09/30 01:26:09;;;;;;;0.50;0.50;;;;;;;18.76;93.84;99032.09;5129095;27;20266;-75
2022/09/30 01:29:00;;;;;;;0.57;0.57;;;;;;;18.77;94.10;99033.78;5129311;27;20190;-75
2022/09/30 01:31:43;;;;;;;0.90;0.90;;;;;;;18.71;94.57;99032.41;5127983;27;20668;-75
2022/09/30 01:34:17;;;;;;;0.47;0.47;;;;;;;18.66;94.57;99037.09;5129634;27;20183;-75
2022/09/30 01:37:03;;;;;;;0.50;0.50;;;;;;;18.63;95.27;99036.47;5133382;27;20648;-76
2022/09/30 01:39:42;;;;;;;0.47;0.47;;;;;;;18.54;95.24;99029.34;5138556;27;20186;-76
2022/09/30 01:42:17;;;;;;;0.50;0.50;;;;;;;18.49;95.34;99029.59;5133067;27;20210;-76
2022/09/30 01:44:52;;;;;;;0.47;0.47;;;;;;;18.49;95.57;99024.41;5133634;27;20656;-76
2022/09/30 01:47:25;;;;;;;0.50;0.50;;;;;;;18.44;95.85;99026.50;5132415;27;20189;-76
2022/09/30 01:50:00;;;;;;;0.40;0.40;;;;;;;18.33;96.34;99031.56;5133046;27;20665;-76
2022/09/30 01:52:38;;;;;;;0.53;0.53;;;;;;;18.25;97.53;99028.69;5133192;27;20193;-75
2022/09/30 01:55:13;;;;;;;0.50;0.50;;;;;;;18.20;97.68;99041.13;5133217;27;20193;-75
2022/09/30 01:57:47;;;;;;;0.50;0.50;;;;;;;18.21;96.95;99040.19;5133873;27;20194;-75
2022/09/30 02:00:15;;;;;;;0.70;0.70;;;;;;;18.15;96.63;99032.81;5136118;27;20632;-75
2022/09/30 02:02:49;;;;;;;0.40;0.40;;;;;;;18.10;96.06;99035.72;5139079;27;20187;-75
2022/09/30 02:05:20;;;;;;;0.40;0.40;;;;;;;18.12;95.68;99038.22;5132862;27;20226;-75
2022/09/30 02:07:53;;;;;;;0.43;0.43;;;;;;;18.13;95.62;99032.06;5132076;27;20677;-75
2022/09/30 02:10:25;;;;;;;0.50;0.50;;;;;;;18.16;95.14;99039.66;5131508;27;20275;-75
2022/09/30 02:12:58;;;;;;;0.50;0.50;;;;;;;18.13;94.99;99037.25;5132703;27;20202;-76
2022/09/30 02:15:31;;;;;;;0.60;0.60;;;;;;;18.03;95.30;99042.22;5132782;27;20201;-75
2022/09/30 02:18:04;;;;;;;0.40;0.40;;;;;;;18.03;95.02;99044.03;5132640;27;20198;-75
2022/09/30 02:20:35;;;;;;;0.83;0.83;;;;;;;18.04;94.88;99043.06;5132146;27;20220;-75
2022/09/30 02:23:06;;;;;;;0.50;0.50;;;;;;;17.94;95.37;99044.59;5131739;27;20669;-75
2022/09/30 02:25:38;;;;;;;0.40;0.40;;;;;;;17.84;95.74;99041.78;5135678;27;20193;-75
2022/09/30 02:28:08;;;;;;;1.00;1.00;;;;;;;17.82;96.34;99036.72;5135263;27;20735;-75
2022/09/30 02:30:39;;;;;;;0.40;0.40;;;;;;;17.83;96.14;99024.59;5132677;27;20255;-75
2022/09/30 02:33:12;;;;;;;0.53;0.53;;;;;;;17.83;96.26;99040.94;5132271;27;20198;-75
2022/09/30 02:35:45;;;;;;;0.57;0.57;;;;;;;17.83;96.28;99035.75;5132598;27;20584;-75
2022/09/30 02:38:18;;;;;;;0.93;0.93;;;;;;;17.80;96.59;99035.97;5131834;27;20198;-75
2022/09/30 02:40:49;;;;;;;0.80;0.80;;;;;;;17.69;96.83;99025.47;5132158;27;20251;-75
2022/09/30 02:43:18;;;;;;;0.50;0.50;;;;;;;17.78;97.19;99042.19;5131346;27;20186;-75
2022/09/30 02:45:51;;;;;;;0.50;0.50;;;;;;;17.79;97.19;99047.28;5131815;27;20250;-75
2022/09/30 02:48:30;;;;;;;0.30;0.30;;;;;;;17.73;97.45;99047.69;5131877;27;20196;-76
2022/09/30 02:51:05;;;;;;;0.50;0.50;;;;;;;17.58;96.47;99056.44;5135214;27;20197;-75
2022/09/30 02:53:38;;;;;;;0.50;0.50;;;;;;;17.47;96.84;99053.69;5131858;27;20201;-75
2022/09/30 02:56:13;;;;;;;0.67;0.67;;;;;;;17.35;97.88;99051.84;5131941;27;20196;-76
2022/09/30 02:58:42;;;;;;;0.50;0.50;;;;;;;17.31;98.80;99050.41;5132261;27;20189;-75
2022/09/30 03:01:10;;;;;;;0.63;0.63;;;;;;;17.25;99.70;99043.00;5131591;27;20201;-76
2022/09/30 03:03:42;;;;;;;0.50;0.50;;;;;;;17.22;99.72;99064.75;5130918;27;20228;-75
2022/09/30 03:06:10;;;;;;;0.50;0.50;;;;;;;17.13;100.00;99064.47;5131615;27;20209;-76
2022/09/30 03:08:38;;;;;;;0.50;0.50;;;;;;;17.10;100.00;99059.50;5130836;27;20285;-76
2022/09/30 03:11:06;;;;;;;0.93;0.93;;;;;;;17.12;100.00;99060.25;5131544;27;20570;-76
2022/09/30 03:14:06;;;;;;;0.60;0.60;;;;;;;17.13;100.00;99056.72;5131055;27;20204;-75
2022/09/30 03:16:49;;;;;;;0.50;0.50;;;;;;;17.15;100.00;99054.88;5115249;27;20193;-76
2022/09/30 03:19:41;;;;;;;0.33;0.33;;;;;;;17.15;100.00;99058.31;5131445;27;20198;-76
2022/09/30 03:22:24;;;;;;;0.50;0.50;;;;;;;17.14;100.00;99067.00;5130722;27;20210;-75
2022/09/30 03:25:13;;;;;;;0.40;0.40;;;;;;;17.13;100.00;99065.31;5131168;27;20186;-76
2022/09/30 03:27:53;;;;;;;0.53;0.53;;;;;;;16.99;100.00;99072.28;5130968;27;20193;-76
2022/09/30 03:30:25;;;;;;;0.50;0.50;;;;;;;16.91;100.00;99058.97;5131200;27;20751;-75
2022/09/30 03:33:03;;;;;;;0.50;0.50;;;;;;;16.92;100.00;99077.00;5131046;27;20197;-74
2022/09/30 03:35:43;;;;;;;0.40;0.40;;;;;;;16.86;100.00;99076.56;5130729;27;20190;-75
2022/09/30 03:38:14;;;;;;;0.50;0.50;;;;;;;16.88;100.00;99085.03;5131185;27;20225;-74
2022/09/30 03:40:48;;;;;;;0.60;0.60;;;;;;;16.90;100.00;99083.22;5131492;27;20231;-75
2022/09/30 03:43:24;;;;;;;0.53;0.53;;;;;;;16.91;100.00;99071.91;5131380;27;20217;-75
2022/09/30 03:45:57;;;;;;;0.60;0.60;;;;;;;16.91;100.00;99069.31;5130639;27;20623;-75
2022/09/30 03:48:27;;;;;;;0.40;0.40;;;;;;;16.85;100.00;99060.19;5132244;27;20193;-76
2022/09/30 03:50:57;;;;;;;0.50;0.50;;;;;;;16.81;100.00;99063.88;5129730;27;20182;-76
2022/09/30 03:53:27;;;;;;;0.47;0.47;;;;;;;16.72;100.00;99080.81;5131102;27;20193;-76
2022/09/30 03:55:55;;;;;;;0.50;0.50;;;;;;;16.74;100.00;99078.09;5130378;27;20198;-76
2022/09/30 03:58:23;;;;;;;0.90;0.90;;;;;;;16.75;100.00;99074.59;5130760;27;20233;-76
2022/09/30 04:00:53;;;;;;;0.70;0.70;;;;;;;16.74;100.00;99078.09;5130639;27;20190;-76
2022/09/30 04:03:21;;;;;;;0.60;0.60;;;;;;;16.74;100.00;99081.53;5130107;27;20198;-76
2022/09/30 04:05:49;;;;;;;0.40;0.40;;;;;;;16.68;100.00;99083.66;5129354;27;20201;-76
2022/09/30 04:08:18;;;;;;;0.50;0.50;;;;;;;16.69;100.00;99081.00;5130271;27;20202;-76
2022/09/30 04:10:45;;;;;;;0.87;0.73;;;;;;;16.76;100.00;99092.66;5130760;27;20222;-76
2022/09/30 04:13:13;;;;;;;0.50;0.50;;;;;;;16.71;100.00;99089.47;5130655;27;20194;-76
2022/09/30 04:15:40;;;;;;;0.40;0.40;;;;;;;16.64;100.00;99079.59;5134305;27;20680;-76
2022/09/30 04:18:07;;;;;;;0.60;0.60;;;;;;;16.75;100.00;99090.97;5130637;27;20194;-76
2022/09/30 04:20:35;;;;;;;0.50;0.50;;;;;;;16.74;99.70;99094.47;5126640;27;20254;-76
2022/09/30 04:23:02;;;;;;;0.50;0.50;;;;;;;16.70;99.97;99098.16;5130413;27;20322;-76
2022/09/30 04:25:31;;;;;;;0.60;0.60;;;;;;;16.68;99.89;99100.03;5130673;27;20190;-76
2022/09/30 04:27:58;;;;;;;0.50;0.50;;;;;;;16.61;99.92;99097.88;5131129;27;20208;-76
2022/09/30 04:30:24;;;;;;;0.50;0.50;;;;;;;16.66;99.83;99109.66;5130177;27;20269;-76
2022/09/30 04:32:51;;;;;;;0.43;0.43;;;;;;;16.68;100.00;99109.53;5130807;27;20193;-76
2022/09/30 04:35:18;;;;;;;0.63;0.63;;;;;;;16.68;100.00;99105.19;5130475;27;20627;-75
2022/09/30 04:37:46;;;;;;;0.50;0.50;;;;;;;16.68;100.00;99101.78;5131286;27;20186;-74
2022/09/30 04:40:15;;;;;;;0.40;0.40;;;;;;;16.68;100.00;99110.38;5136308;27;20196;-74
2022/09/30 04:42:46;;;;;;;0.50;0.50;;;;;;;16.69;100.00;99101.69;5130597;27;20213;-74
2022/09/30 04:45:14;;;;;;;0.67;0.67;;;;;;;16.69;100.00;99099.09;5133424;27;20202;-75
2022/09/30 04:47:44;;;;;;;0.70;0.70;;;;;;;16.70;100.00;99112.88;5130296;27;20194;-74
2022/09/30 04:50:12;;;;;;;0.50;0.50;;;;;;;16.64;100.00;99114.06;5130205;27;20192;-74
2022/09/30 04:52:43;;;;;;;0.50;0.50;;;;;;;16.65;100.00;99130.44;5130153;27;20186;-74
2022/09/30 04:55:10;;;;;;;0.50;0.50;;;;;;;16.62;100.00;99131.44;5130267;27;20561;-74
2022/09/30 04:57:38;;;;;;;1.00;1.00;;;;;;;16.64;100.00;99152.88;5130179;27;20197;-74
2022/09/30 05:00:08;;;;;;;0.40;0.40;;;;;;;16.63;100.00;99159.00;5129821;27;20198;-74
2022/09/30 05:02:35;;;;;;;0.60;0.60;;;;;;;16.69;100.00;99171.59;5130182;27;20236;-74
2022/09/30 05:05:02;;;;;;;0.60;0.60;;;;;;;16.69;100.00;99169.00;5130153;27;20744;-75
2022/09/30 05:07:31;;;;;;;0.53;0.53;;;;;;;16.74;100.00;99171.28;5130074;27;20723;-74
2022/09/30 05:09:58;;;;;;;0.50;0.50;;;;;;;16.76;100.00;99170.31;5130898;27;20285;-73
2022/09/30 05:12:25;;;;;;;0.50;0.50;;;;;;;16.75;100.00;99158.28;5133507;27;20692;-73
2022/09/30 05:14:52;;;;;;;0.53;0.53;;;;;;;16.83;100.00;99167.34;5130155;27;20209;-73
2022/09/30 05:17:21;;;;;;;0.50;0.50;;;;;;;16.77;100.00;99166.78;5133726;27;20186;-74
2022/09/30 05:19:48;;;;;;;0.50;0.50;;;;;;;16.66;100.00;99176.09;5133554;27;20186;-74
2022/09/30 05:22:15;;;;;;;0.50;0.50;;;;;;;16.56;100.00;99147.34;5134416;27;20720;-74
2022/09/30 05:24:42;;;;;;;0.40;0.40;;;;;;;16.96;100.00;99189.00;5133671;27;20186;-74
2022/09/30 05:27:09;;;;;;;0.40;0.40;;;;;;;17.14;100.00;99190.47;5128143;27;20182;-74
2022/09/30 05:29:36;;;;;;;0.57;0.57;;;;;;;17.24;100.00;99183.81;5130143;27;20186;-74
2022/09/30 05:32:03;;;;;;;0.40;0.40;;;;;;;17.47;100.00;99198.81;5129013;27;20201;-75
2022/09/30 05:34:31;;;;;;;0.60;0.60;;;;;;;17.62;100.00;99192.69;5128267;27;20214;-75
2022/09/30 05:36:58;;;;;;;0.50;0.50;;;;;;;17.59;100.00;99192.91;5129214;27;20826;-75
2022/09/30 05:39:25;;;;;;;0.63;0.63;;;;;;;17.87;100.00;99191.19;5130302;27;20209;-74
2022/09/30 05:41:54;;;;;;;0.50;0.50;;;;;;;18.08;100.00;99179.44;5129769;27;20301;-74
2022/09/30 05:44:21;;;;;;;0.50;0.50;;;;;;;18.32;99.75;99193.41;5131579;27;20190;-73
2022/09/30 05:46:48;;;;;;;0.50;0.50;;;;;;;18.53;97.78;99186.84;5129983;27;20226;-74
2022/09/30 05:49:15;;;;;;;0.50;0.50;;;;;;;18.74;96.69;99198.41;5129120;27;20186;-74
2022/09/30 05:51:44;;;;;;;0.60;0.60;;;;;;;18.90;96.22;99197.41;5131049;27;20214;-74
2022/09/30 05:54:12;;;;;;;0.43;0.43;;;;;;;19.03;95.08;99188.66;5130650;27;20192;-74
2022/09/30 05:56:39;;;;;;;0.73;0.73;;;;;;;19.29;93.81;99202.44;5132000;27;20720;-75
2022/09/30 05:59:06;;;;;;;0.50;0.50;;;;;;;19.38;92.39;99197.47;5130660;27;20252;-74
2022/09/30 06:01:34;;;;;;;0.50;0.50;;;;;;;19.55;91.64;99198.91;5131873;27;20201;-73
2022/09/30 06:04:01;;;;;;;0.50;0.50;;;;;;;19.59;91.08;99202.97;5131232;27;20204;-74
2022/09/30 06:06:29;;;;;;;0.40;0.40;;;;;;;19.55;90.97;99204.13;5128988;27;20204;-73
2022/09/30 06:08:57;;;;;;;1.03;1.03;;;;;;;19.63;90.91;99204.44;5130456;27;20777;-75
2022/09/30 06:11:24;;;;;;;0.40;0.40;;;;;;;19.77;90.61;99193.84;5128020;27;20232;-74
2022/09/30 06:13:52;;;;;;;0.40;0.40;;;;;;;19.85;89.54;99196.75;5130825;27;20194;-74
2022/09/30 06:16:19;;;;;;;0.50;0.50;;;;;;;19.92;89.66;99211.00;5125325;27;20189;-74
2022/09/30 06:18:46;;;;;;;0.50;0.50;;;;;;;20.07;89.66;99227.28;5130056;27;20200;-74
2022/09/30 06:21:15;;;;;;;0.50;0.50;;;;;;;20.23;88.32;99232.19;5129019;27;20194;-74
2022/09/30 06:23:44;;;;;;;0.40;0.40;;;;;;;20.26;87.82;99227.63;5128392;27;20224;-74
2022/09/30 06:26:13;;;;;;;0.70;0.70;;;;;;;20.27;88.00;99239.72;5124407;27;20722;-75
2022/09/30 06:28:41;;;;;;;0.50;0.50;;;;;;;20.45;88.29;99245.38;5129479;27;20704;-75
2022/09/30 06:31:08;;;;;;;0.40;0.40;;;;;;;20.56;87.78;99250.63;5129290;27;20213;-74
2022/09/30 06:33:38;;;;;;;0.50;0.50;;;;;;;20.54;86.90;99260.34;5135074;27;20189;-74
2022/09/30 06:36:06;;;;;;;0.70;0.70;;;;;;;20.69;87.52;99259.19;5135621;27;20198;-73
2022/09/30 06:38:36;;;;;;;0.50;0.50;;;;;;;20.81;85.78;99266.09;5139160;27;20211;-74
2022/09/30 06:41:04;;;;;;;0.40;0.40;;;;;;;20.91;85.85;99274.06;5130397;27;20326;-74
2022/09/30 06:43:33;;;;;;;0.40;0.40;;;;;;;21.09;84.35;99258.84;5134889;27;20208;-73
2022/09/30 06:46:02;;;;;;;0.40;0.40;;;;;;;21.29;84.57;99276.44;5130719;27;20202;-74
2022/09/30 06:48:29;;;;;;;0.40;0.40;;;;;;;21.49;83.50;99262.69;5126823;27;20190;-74
2022/09/30 06:50:59;;;;;;;0.40;0.40;;;;;;;21.67;82.50;99256.06;5130086;27;20209;-74
2022/09/30 06:53:28;;;;;;;0.40;0.40;;;;;;;21.75;81.62;99247.63;5133854;27;20272;-73
2022/09/30 06:55:56;;;;;;;0.40;0.40;;;;;;;21.95;80.92;99242.53;5139551;27;20224;-74
2022/09/30 06:58:24;;;;;;;0.30;0.30;;;;;;;22.08;80.66;99244.16;5131663;27;20190;-74
2022/09/30 07:00:58;;;;;;;0.40;0.40;;;;;;;22.13;81.21;99253.31;5131793;27;20322;-74
2022/09/30 07:03:28;;;;;;;0.47;0.47;;;;;;;22.33;81.88;99244.69;5131499;27;20248;-74
2022/09/30 07:05:57;;;;;;;0.30;0.30;;;;;;;22.51;79.69;99252.81;5134519;27;20688;-74
2022/09/30 07:08:28;;;;;;;0.30;0.30;;;;;;;22.68;78.63;99260.13;5130526;27;20568;-74
2022/09/30 07:10:56;;;;;;;0.50;0.50;;;;;;;22.68;79.77;99267.97;5134590;27;20218;-74
2022/09/30 07:13:22;;;;;;;0.30;0.30;;;;;;;22.87;78.91;99276.00;5131039;27;20198;-74
2022/09/30 07:15:53;;;;;;;0.40;0.40;;;;;;;22.89;77.78;99276.69;5131619;27;20561;-75
2022/09/30 07:18:22;;;;;;;0.20;0.20;;;;;;;23.04;77.71;99268.53;5131802;27;20202;-75
2022/09/30 07:20:50;;;;;;;0.30;0.30;;;;;;;23.20;78.35;99271.53;5131751;27;20281;-74
2022/09/30 07:23:16;;;;;;;0.47;0.47;;;;;;;23.29;76.63;99279.41;5128306;27;20229;-76
2022/09/30 07:25:55;;;;;;;0.30;0.30;;;;;;;23.35;76.06;99276.28;5127809;27;20189;-75
2022/09/30 07:28:26;;;;;;;0.30;0.30;;;;;;;23.57;76.74;99279.72;5130064;27;20212;-75
2022/09/30 07:30:55;;;;;;;0.30;0.30;;;;;;;23.81;75.94;99288.91;5128683;27;20288;-74
2022/09/30 07:33:24;;;;;;;0.33;0.33;;;;;;;24.00;75.57;99293.38;5129492;27;20229;-74
2022/09/30 07:35:52;;;;;;;0.40;0.40;;;;;;;24.09;75.37;99289.13;5138735;27;20604;-77
2022/09/30 07:38:20;;;;;;;0.30;0.30;;;;;;;24.21;75.11;99290.69;5143700;27;20198;-76
2022/09/30 07:40:55;;;;;;;0.30;0.30;;;;;;;24.43;74.25;99291.28;5131840;27;20204;-76
2022/09/30 07:43:23;;;;;;;0.40;0.40;;;;;;;24.59;73.31;99298.59;5129371;27;20703;-76
2022/09/30 07:45:50;;;;;;;0.30;0.30;;;;;;;24.79;73.31;99294.19;5130372;27;20190;-76
2022/09/30 07:51:00;;;;;;;0.30;0.30;;;;;;;25.19;70.43;99305.38;5149107;27;20384;-77
2022/09/30 07:53:27;;;;;;;0.20;0.20;;;;;;;25.28;70.46;99308.94;5141910;27;20715;-75
2022/09/30 07:55:54;;;;;;;0.40;0.40;;;;;;;25.42;69.06;99305.88;5129768;27;20190;-76
2022/09/30 07:58:21;;;;;;;0.27;0.27;;;;;;;25.50;67.83;99309.47;5125235;27;20219;-77
2022/09/30 08:00:49;;;;;;;0.30;0.30;;;;;;;25.63;66.98;99314.41;5119677;27;20285;-76
2022/09/30 08:03:16;;;;;;;0.30;0.30;;;;;;;25.72;66.06;99310.91;5123506;27;20233;-76
2022/09/30 08:05:44;;;;;;;0.30;0.30;;;;;;;25.83;66.10;99316.00;5124458;27;20284;-77
2022/09/30 08:08:13;;;;;;;0.30;0.30;;;;;;;25.84;66.71;99325.53;5124447;27;20202;-76
2022/09/30 08:10:40;;;;;;;0.30;0.30;;;;;;;25.87;67.86;99322.63;5128158;27;20214;-76
2022/09/30 08:13:08;;;;;;;0.40;0.40;;;;;;;25.87;67.27;99322.63;5129826;27;20193;-76
2022/09/30 08:15:35;;;;;;;0.30;0.30;;;;;;;26.03;67.88;99325.44;5121901;27;20191;-77
2022/09/30 08:18:02;;;;;;;0.30;0.30;;;;;;;26.08;66.75;99328.44;5126819;27;20752;-76
2022/09/30 08:20:30;;;;;;;0.20;0.20;;;;;;;26.06;65.86;99334.84;5129238;27;20213;-76
2022/09/30 08:22:58;;;;;;;0.33;0.33;;;;;;;25.91;65.04;99333.66;5130543;27;20217;-76
2022/09/30 08:25:26;;;;;;;0.30;0.30;;;;;;;26.02;66.03;99325.59;5130060;27;20214;-76
2022/09/30 08:27:54;;;;;;;0.30;0.30;;;;;;;26.17;66.18;99323.34;5129842;27;20202;-76
2022/09/30 08:30:21;;;;;;;0.30;0.30;;;;;;;26.34;65.10;99325.16;5129156;27;20186;-77
2022/09/30 08:32:48;;;;;;;0.30;0.30;;;;;;;26.40;64.21;99322.75;5128363;27;20205;-77
2022/09/30 08:35:15;;;;;;;0.30;0.30;;;;;;;26.45;64.37;99315.28;5129108;27;20190;-77
2022/09/30 08:37:42;;;;;;;0.20;0.20;;;;;;;26.75;65.39;99324.63;5140752;27;20472;-78
2022/09/30 08:40:20;;;;;;;0.20;0.20;;;;;;;26.91;61.22;99324.78;5151018;27;20189;-78
2022/09/30 08:43:02;;;;;;;0.20;0.20;;;;;;;27.02;60.82;99321.91;5151700;27;20213;-78
2022/09/30 08:45:39;;;;;;;0.30;0.30;;;;;;;27.07;60.18;99319.66;5135535;27;20204;-77
2022/09/30 08:48:19;;;;;;;0.30;0.30;;;;;;;27.33;60.16;99324.13;5155797;27;20181;-78
2022/09/30 08:50:56;;;;;;;0.30;0.30;;;;;;;27.42;57.95;99328.44;5136808;27;20205;-78
2022/09/30 08:53:30;;;;;;;0.20;0.20;;;;;;;27.52;58.04;99339.75;5132535;27;20248;-78
2022/09/30 08:56:01;;;;;;;0.13;0.13;;;;;;;27.64;58.50;99328.78;5131877;27;20198;-78
2022/09/30 08:58:32;;;;;;;0.20;0.20;;;;;;;27.52;59.43;99334.47;5134418;27;20692;-77
2022/09/30 09:01:05;;;;;;;0.20;0.20;;;;;;;27.48;58.85;99333.13;5150636;27;20200;-79
2022/09/30 09:03:34;;;;;;;0.20;0.20;;;;;;;27.61;59.51;99330.91;5148233;27;20221;-78
2022/09/30 09:06:16;;;;;;;0.30;0.30;;;;;;;27.75;59.98;99332.13;5135076;27;20196;-78
2022/09/30 09:09:04;;;;;;;0.20;0.20;;;;;;;27.95;56.63;99331.72;5135020;27;20185;-79
2022/09/30 09:11:49;;;;;;;0.30;0.30;;;;;;;28.02;58.25;99335.38;5138852;27;20217;-78
2022/09/30 09:14:30;;;;;;;0.20;0.20;;;;;;;28.05;57.11;99337.72;5155553;27;20246;-78
2022/09/30 09:17:11;;;;;;;0.30;0.30;;;;;;;28.05;58.45;99343.00;5155812;27;20201;-78
2022/09/30 09:19:47;;;;;;;0.30;0.30;;;;;;;28.12;57.32;99338.75;5142422;27;20672;-78
2022/09/30 09:22:14;;;;;;;0.20;0.20;;;;;;;28.23;57.04;99344.72;5135021;27;20200;-79
2022/09/30 09:24:46;;;;;;;0.20;0.20;;;;;;;28.26;56.69;99341.78;5134457;27;20300;-78
2022/09/30 09:27:22;;;;;;;0.20;0.20;;;;;;;28.34;53.60;99341.78;5134745;27;20650;-79
2022/09/30 09:30:01;;;;;;;0.20;0.20;;;;;;;28.39;52.83;99334.22;5137854;27;20193;-78
2022/09/30 09:32:29;;;;;;;0.20;0.20;;;;;;;28.52;54.18;99339.88;5152790;27;20276;-78
2022/09/30 09:35:01;;;;;;;0.20;0.20;;;;;;;28.61;55.62;99344.16;5138253;27;20239;-78
2022/09/30 09:40:34;;;;;;;0.20;0.20;;;;;;;28.81;51.79;99353.47;5134554;27;20259;-79
2022/09/30 09:43:16;;;;;;;0.20;0.20;;;;;;;28.90;51.77;99344.56;5139856;27;20297;-78
2022/09/30 09:45:54;;;;;;;0.30;0.30;;;;;;;28.95;52.64;99342.25;5133950;27;20188;-79
2022/09/30 09:48:21;;;;;;;0.20;0.20;;;;;;;28.96;52.79;99343.91;5135787;27;20270;-79
2022/09/30 09:50:55;;;;;;;0.20;0.20;;;;;;;28.87;54.92;99344.91;5134653;27;20802;-79
2022/09/30 09:53:51;;;;;;;0.30;0.30;;;;;;;28.80;53.17;99343.91;5136111;27;20232;-79
2022/09/30 09:56:20;;;;;;;0.20;0.20;;;;;;;28.79;55.03;99336.94;5134229;27;20193;-79
2022/09/30 09:59:12;;;;;;;0.20;0.20;;;;;;;28.79;52.67;99344.88;5153013;27;20212;-79
2022/09/30 10:01:43;;;;;;;0.20;0.20;;;;;;;28.88;53.81;99343.91;5129253;27;20514;-77
2022/09/30 10:04:16;;;;;;;0.30;0.30;;;;;;;28.92;52.76;99336.50;5131287;27;20756;-77
2022/09/30 10:06:50;;;;;;;0.22;0.22;;;;;;;28.99;53.28;99332.19;5132771;27;20206;-75
2022/09/30 10:09:29;;;;;;;0.20;0.20;;;;;;;29.11;52.12;99336.97;5133427;27;20371;-75
2022/09/30 10:12:29;;;;;;;0.80;0.80;;;;;;;28.87;51.81;99333.50;5132600;27;20301;-76
2022/09/30 10:15:18;;;;;;;0.13;0.13;;;;;;;28.93;51.97;99338.13;5131811;27;20660;-75
2022/09/30 10:17:52;;;;;;;0.30;0.30;;;;;;;28.79;51.94;99331.69;5130902;27;20621;-75
2022/09/30 10:20:26;;;;;;;0.23;0.23;;;;;;;28.58;52.87;99299.66;5131187;27;20576;-75
2022/09/30 10:23:02;;;;;;;0.20;0.20;;;;;;;28.97;51.67;99329.72;5132353;27;20197;-76
2022/09/30 10:25:29;;;;;;;0.20;0.20;;;;;;;29.16;51.35;99328.56;5132828;27;20202;-75
2022/09/30 10:27:58;;;;;;;0.33;0.33;;;;;;;29.33;49.52;99324.13;5131848;27;20194;-76
2022/09/30 10:30:43;;;;;;;0.20;0.20;;;;;;;29.49;49.99;99324.09;5132263;27;20224;-75
2022/09/30 10:33:21;;;;;;;0.20;0.20;;;;;;;29.49;49.36;99321.44;5128338;27;20280;-75
2022/09/30 10:35:57;;;;;;;0.22;0.22;;;;;;;29.45;49.74;99328.06;5123709;27;20194;-76
2022/09/30 10:38:28;;;;;;;0.35;0.35;;;;;;;29.50;48.60;99323.09;5125699;27;20198;-75
2022/09/30 10:40:55;;;;;;;0.30;0.30;;;;;;;29.52;49.71;99318.47;5127528;27;20194;-75
2022/09/30 10:43:27;;;;;;;0.20;0.20;;;;;;;29.23;49.86;99270.63;5126324;27;20210;-74
2022/09/30 10:45:54;;;;;;;0.20;0.20;;;;;;;29.68;49.24;99313.16;5128305;27;20247;-74
2022/09/30 10:48:25;;;;;;;0.20;0.20;;;;;;;29.78;51.05;99313.78;5127824;27;20208;-74
2022/09/30 10:50:53;;;;;;;0.15;0.15;;;;;;;29.83;49.00;99310.63;5130343;27;20197;-75
2022/09/30 10:53:24;;;;;;;0.20;0.20;;;;;;;29.84;47.91;99304.38;5128281;27;20198;-75
2022/09/30 10:55:53;;;;;;;0.30;0.30;;;;;;;29.88;48.16;99303.88;5134969;27;20710;-76
2022/09/30 10:58:30;;;;;;;0.20;0.20;;;;;;;29.83;47.54;99306.19;5133745;27;20272;-74
2022/09/30 11:01:03;;;;;;;0.25;0.25;;;;;;;29.91;48.00;99298.22;5132662;27;20272;-76
2022/09/30 11:03:37;;;;;;;0.20;0.20;;;;;;;29.98;45.61;99299.19;5134821;27;20222;-76
2022/09/30 11:06:06;;;;;;;0.30;0.30;;;;;;;30.05;47.34;99305.41;5133563;27;20205;-75
2022/09/30 11:08:44;;;;;;;0.20;0.20;;;;;;;30.12;47.29;99306.38;5137816;27;20251;-75
2022/09/30 11:11:15;;;;;;;0.30;0.30;;;;;;;30.12;47.58;99295.81;5142500;27;20232;-75
2022/09/30 11:13:46;;;;;;;0.17;0.17;;;;;;;30.06;45.00;99291.22;5133552;27;20198;-75
2022/09/30 11:16:24;;;;;;;0.20;0.20;;;;;;;30.07;44.33;99297.31;5131726;27;20723;-74
2022/09/30 11:18:57;;;;;;;0.20;0.20;;;;;;;30.01;45.39;99304.13;5132293;27;20193;-75
2022/09/30 11:21:30;;;;;;;0.20;0.20;;;;;;;30.04;44.92;99303.78;5129645;27;20194;-75
2022/09/30 11:24:02;;;;;;;0.13;0.13;;;;;;;29.91;42.31;99297.41;5129488;27;20228;-76
2022/09/30 11:26:39;;;;;;;0.20;0.20;;;;;;;30.00;44.76;99286.63;5133697;27;20278;-75
2022/09/30 11:29:38;;;;;;;0.30;0.30;;;;;;;30.10;46.51;99287.22;5133583;27;20186;-75
2022/09/30 11:32:16;;;;;;;0.10;0.10;;;;;;;29.94;44.89;99281.19;5131902;27;20686;-75
2022/09/30 11:34:57;;;;;;;0.20;0.20;;;;;;;30.03;44.49;99285.44;5133179;27;20302;-75
2022/09/30 11:37:37;;;;;;;0.22;0.22;;;;;;;30.04;44.05;99282.63;5134945;27;20688;-75
2022/09/30 11:40:27;;;;;;;0.30;0.30;;;;;;;29.84;42.36;99276.13;5126950;27;20221;-75
2022/09/30 11:43:00;;;;;;;0.30;0.30;;;;;;;29.83;45.96;99274.47;5128749;27;20226;-75
2022/09/30 11:45:40;;;;;;;0.20;0.20;;;;;;;29.91;45.08;99277.09;5130237;27;20717;-76
2022/09/30 11:48:26;;;;;;;0.20;0.20;;;;;;;29.98;43.83;99272.75;5123336;27;20736;-75
2022/09/30 11:51:05;;;;;;;0.20;0.20;;;;;;;30.06;44.09;99271.88;5120415;27;20202;-75
2022/09/30 11:53:44;;;;;;;0.20;0.20;;;;;;;30.16;43.83;99275.13;5125414;27;20210;-75
2022/09/30 11:56:31;;;;;;;0.20;0.20;;;;;;;30.23;43.12;99275.25;5133985;27;20207;-75
2022/09/30 11:59:03;;;;;;;0.20;0.20;;;;;;;30.30;42.19;99276.22;5132177;27;20236;-76
2022/09/30 12:01:36;;;;;;;0.25;0.25;;;;;;;30.34;42.31;99278.31;5134602;27;20198;-75